Time;durP1;ratioP1;P1;durP2;ratioP2;P2;SDS_P1;SDS_P2;PMS_P1;PMS_P2;Temp;Humidity;BMP_temperature;BMP_pressure;BME280_temperature;BME280_humidity;BME280_pressure;Samples;Min_cycle;Max_cycle;Signal;HPM_P1;HPM_P2
2021/11/10 00:02:13;;;;;;;17.40;6.50;;;;;;;6.26;69.16;97137.38;5048196;28;20449;-80
2021/11/10 00:04:38;;;;;;;17.10;7.20;;;;;;;6.15;69.97;97131.94;5039715;28;20470;-80
2021/11/10 00:07:04;;;;;;;17.73;7.72;;;;;;;6.14;68.98;97143.56;5038034;28;20040;-81
2021/11/10 00:09:30;;;;;;;19.23;8.93;;;;;;;6.08;69.09;97136.03;5047645;28;20064;-80
2021/11/10 00:11:55;;;;;;;17.35;7.93;;;;;;;6.00;68.35;97131.16;5049163;28;20033;-81
2021/11/10 00:14:21;;;;;;;16.52;7.15;;;;;;;5.92;69.54;97132.56;5026850;28;20373;-81
2021/11/10 00:16:47;;;;;;;13.02;8.18;;;;;;;5.85;69.90;97139.25;5029930;28;20048;-79
2021/11/10 00:19:12;;;;;;;17.58;7.15;;;;;;;5.88;70.31;97143.53;5028537;28;20029;-80
2021/11/10 00:21:38;;;;;;;13.68;6.30;;;;;;;5.90;69.58;97134.47;5028846;28;20037;-80
2021/11/10 00:24:03;;;;;;;14.85;6.68;;;;;;;5.87;69.65;97137.34;5030104;28;20052;-81
2021/11/10 00:26:29;;;;;;;16.92;7.93;;;;;;;5.78;70.36;97140.66;5027272;28;20442;-80
2021/11/10 00:28:54;;;;;;;15.57;6.85;;;;;;;5.72;70.03;97143.72;5027455;28;20030;-80
2021/11/10 00:31:20;;;;;;;14.95;7.20;;;;;;;5.63;69.74;97140.72;5026424;28;20050;-80
2021/11/10 00:33:46;;;;;;;15.48;7.90;;;;;;;5.55;70.19;97143.91;5029174;28;20490;-80
2021/11/10 00:36:12;;;;;;;14.85;7.88;;;;;;;5.53;69.83;97148.47;5048597;28;20033;-81
2021/11/10 00:38:38;;;;;;;17.20;7.85;;;;;;;5.52;70.36;97141.47;5047537;28;20096;-81
2021/11/10 00:41:03;;;;;;;16.38;7.53;;;;;;;5.48;70.14;97137.28;5047169;28;20071;-82
2021/11/10 00:43:29;;;;;;;15.77;7.97;;;;;;;5.42;69.73;97135.03;5028891;28;20017;-79
2021/11/10 00:45:54;;;;;;;14.80;8.40;;;;;;;5.36;69.37;97148.75;5028516;28;20040;-81
2021/11/10 00:48:20;;;;;;;16.90;8.82;;;;;;;5.28;69.83;97142.13;5028390;28;20034;-83
2021/11/10 00:50:45;;;;;;;16.58;9.13;;;;;;;5.21;69.63;97140.81;5027328;28;20079;-78
2021/11/10 00:53:11;;;;;;;18.50;9.65;;;;;;;5.15;70.51;97144.75;5028568;28;20061;-80
2021/11/10 00:55:36;;;;;;;14.82;8.43;;;;;;;5.15;70.65;97151.88;5027070;28;20036;-80
2021/11/10 00:58:02;;;;;;;12.75;7.43;;;;;;;5.04;70.96;97145.47;5027790;28;20059;-80
2021/11/10 01:00:28;;;;;;;13.00;6.50;;;;;;;5.25;71.42;97147.66;5027011;28;20036;-82
2021/11/10 01:02:53;;;;;;;11.60;6.25;;;;;;;5.25;70.96;97137.03;5037390;28;20029;-80
2021/11/10 01:05:19;;;;;;;18.92;9.02;;;;;;;5.25;72.55;97145.00;5046020;28;20037;-78
2021/11/10 01:07:45;;;;;;;19.45;9.00;;;;;;;5.16;73.61;97145.59;5016183;28;20037;-81
2021/11/10 01:10:11;;;;;;;24.58;11.25;;;;;;;5.16;73.58;97146.44;5028321;28;20029;-80
2021/11/10 01:12:37;;;;;;;24.77;10.38;;;;;;;5.23;73.78;97146.03;5027711;28;20029;-81
2021/11/10 01:15:02;;;;;;;23.05;10.35;;;;;;;5.22;73.81;97147.00;5028152;28;20022;-80
2021/11/10 01:17:28;;;;;;;22.05;11.20;;;;;;;5.10;73.59;97143.34;5042142;28;20460;-80
2021/11/10 01:19:53;;;;;;;23.23;11.77;;;;;;;4.99;72.98;97152.88;5048839;28;20083;-80
2021/11/10 01:22:19;;;;;;;21.45;11.10;;;;;;;4.92;73.52;97151.56;5048111;28;20055;-80
2021/11/10 01:24:44;;;;;;;20.15;10.95;;;;;;;4.88;74.98;97144.75;5048255;28;20028;-83
2021/11/10 01:27:10;;;;;;;16.80;10.23;;;;;;;4.92;74.90;97151.56;5046349;28;20063;-85
2021/11/10 01:29:36;;;;;;;19.08;10.98;;;;;;;5.00;74.94;97149.25;5035005;28;20041;-80
2021/11/10 01:32:02;;;;;;;21.10;10.40;;;;;;;4.99;75.28;97147.56;5046979;28;20045;-81
2021/11/10 01:34:27;;;;;;;18.40;10.63;;;;;;;5.02;74.96;97155.34;5046996;28;20044;-81
2021/11/10 01:36:53;;;;;;;19.73;10.93;;;;;;;4.99;74.56;97149.34;5047609;28;20036;-79
2021/11/10 01:39:18;;;;;;;19.90;10.90;;;;;;;5.01;74.83;97160.75;5045482;28;20040;-81
2021/11/10 01:41:48;;;;;;;20.50;11.00;;;;;;;4.99;74.88;97166.19;5033028;28;20030;-84
2021/11/10 01:44:22;;;;;;;17.77;10.63;;;;;;;4.90;75.02;97166.78;5028008;28;20026;-80
2021/11/10 01:46:48;;;;;;;18.45;10.52;;;;;;;4.87;76.52;97164.31;5026999;28;20112;-80
2021/11/10 01:49:14;;;;;;;24.52;12.40;;;;;;;4.88;75.87;97166.88;5027305;28;20041;-81
2021/11/10 01:51:49;;;;;;;26.77;12.45;;;;;;;4.82;76.46;97160.13;5028277;28;20021;-83
2021/11/10 01:54:14;;;;;;;28.50;13.60;;;;;;;4.74;75.21;97159.75;5026052;28;20076;-80
2021/11/10 01:56:40;;;;;;;25.30;13.45;;;;;;;4.75;75.95;97156.16;5027824;28;20037;-80
2021/11/10 01:59:06;;;;;;;22.63;13.77;;;;;;;4.74;75.45;97159.75;5026165;28;20079;-81
2021/11/10 02:01:31;;;;;;;24.95;13.45;;;;;;;4.68;76.00;97154.84;5025958;28;20451;-81
2021/11/10 02:03:56;;;;;;;21.77;11.75;;;;;;;4.70;75.82;97159.13;5038217;28;20503;-81
2021/11/10 02:06:22;;;;;;;16.77;9.65;;;;;;;4.67;75.57;97153.16;5033593;28;20025;-82
2021/11/10 02:08:48;;;;;;;16.83;9.18;;;;;;;4.63;75.01;97155.13;5047743;28;20021;-81
2021/11/10 02:11:14;;;;;;;11.90;7.00;;;;;;;4.63;74.95;97160.44;5046897;28;20471;-80
2021/11/10 02:13:40;;;;;;;10.23;5.97;;;;;;;4.58;74.43;97152.78;5048099;28;20527;-80
2021/11/10 02:16:05;;;;;;;10.55;6.00;;;;;;;4.57;74.08;97163.50;5043068;28;20071;-80
2021/11/10 02:18:31;;;;;;;8.70;5.35;;;;;;;4.50;74.96;97162.19;5034244;28;20024;-80
2021/11/10 02:20:56;;;;;;;12.15;6.05;;;;;;;4.46;74.72;97158.88;5047098;28;20021;-82
2021/11/10 02:23:22;;;;;;;9.20;5.68;;;;;;;4.44;74.36;97163.41;5029335;28;20032;-81
2021/11/10 02:25:49;;;;;;;7.47;4.93;;;;;;;4.39;74.84;97161.03;5047683;28;20499;-84
2021/11/10 02:28:15;;;;;;;7.72;5.00;;;;;;;4.47;74.14;97155.25;5044898;28;20029;-84
2021/11/10 02:30:42;;;;;;;11.40;6.22;;;;;;;4.38;74.21;97153.16;5046342;28;20055;-83
2021/11/10 02:33:08;;;;;;;9.50;5.60;;;;;;;4.45;74.47;97165.09;5045589;28;20041;-80
2021/11/10 02:35:33;;;;;;;11.38;6.07;;;;;;;4.45;74.40;97159.78;5045538;28;20029;-83
2021/11/10 02:38:01;;;;;;;9.30;5.95;;;;;;;4.46;74.67;97158.88;5039991;28;20022;-80
2021/11/10 02:40:26;;;;;;;9.88;5.30;;;;;;;4.58;74.05;97171.38;5026898;28;20108;-81
2021/11/10 02:42:52;;;;;;;9.93;5.03;;;;;;;4.56;74.13;97167.13;5025963;28;20029;-82
2021/11/10 02:45:17;;;;;;;9.25;5.07;;;;;;;4.64;73.80;97172.78;5026053;28;20555;-81
2021/11/10 02:47:43;;;;;;;8.75;4.65;;;;;;;4.69;74.63;97168.03;5011610;28;20013;-79
2021/11/10 02:50:09;;;;;;;10.50;4.90;;;;;;;4.73;74.28;97173.16;5046755;28;20522;-79
2021/11/10 02:52:34;;;;;;;7.10;4.82;;;;;;;4.79;74.81;97173.63;5045339;28;20035;-78
2021/11/10 02:55:00;;;;;;;11.68;5.85;;;;;;;4.85;74.54;97175.06;5044843;28;20021;-80
2021/11/10 02:57:26;;;;;;;8.18;5.53;;;;;;;4.92;73.83;97178.16;5046843;28;20032;-79
2021/11/10 02:59:51;;;;;;;17.38;9.15;;;;;;;4.98;74.38;97180.41;5042271;28;20496;-79
2021/11/10 03:02:46;;;;;;;9.00;4.78;;;;;;;5.02;74.49;97170.44;5024969;28;20056;-78
2021/11/10 03:05:11;;;;;;;7.95;4.90;;;;;;;4.93;74.23;97174.56;5025953;28;20032;-79
2021/11/10 03:07:37;;;;;;;8.90;4.80;;;;;;;5.01;74.18;97168.75;5031893;28;20033;-80
2021/11/10 03:10:03;;;;;;;9.07;4.32;;;;;;;5.00;73.83;97175.84;5025767;28;20028;-80
2021/11/10 03:12:28;;;;;;;7.20;3.95;;;;;;;5.02;74.77;97173.94;5025219;28;20032;-79
2021/11/10 03:14:54;;;;;;;7.43;5.07;;;;;;;5.05;74.36;97173.75;5024888;28;20049;-81
2021/11/10 03:17:20;;;;;;;6.90;4.20;;;;;;;5.12;73.82;97176.00;5029196;28;20036;-80
2021/11/10 03:19:45;;;;;;;8.90;4.10;;;;;;;5.03;74.74;97180.97;5045576;28;20025;-82
2021/11/10 03:22:12;;;;;;;7.78;4.40;;;;;;;5.02;74.64;97176.63;5046063;28;20040;-80
2021/11/10 03:24:37;;;;;;;8.35;4.15;;;;;;;5.13;74.46;97177.72;5044764;28;20522;-79
2021/11/10 03:27:03;;;;;;;7.20;3.75;;;;;;;5.21;74.12;97171.91;5045752;28;20025;-80
2021/11/10 03:29:29;;;;;;;7.20;3.53;;;;;;;5.23;74.00;97172.66;5035704;28;20034;-79
2021/11/10 03:31:54;;;;;;;5.23;3.43;;;;;;;5.26;73.67;97175.97;4964306;28;1114489;-80
2021/11/10 03:34:23;;;;;;;6.57;3.40;;;;;;;5.32;73.25;97180.88;5025160;28;20044;-80
2021/11/10 03:36:49;;;;;;;5.22;3.50;;;;;;;5.28;73.38;97179.38;5027032;28;20045;-81
2021/11/10 03:39:15;;;;;;;6.30;2.95;;;;;;;5.34;73.21;97180.78;5025025;28;20065;-81
2021/11/10 03:41:41;;;;;;;4.32;2.83;;;;;;;5.31;73.76;97187.16;5024363;28;20029;-81
2021/11/10 03:44:07;;;;;;;4.15;2.70;;;;;;;5.37;73.58;97182.41;5008859;28;20576;-80
2021/11/10 03:46:32;;;;;;;4.72;2.70;;;;;;;5.32;73.54;97186.19;5034094;28;20091;-81
2021/11/10 03:48:58;;;;;;;3.60;2.55;;;;;;;5.34;73.25;97178.13;5046017;28;20029;-80
2021/11/10 03:51:23;;;;;;;6.28;2.90;;;;;;;5.37;72.46;97190.38;5046265;28;20024;-80
2021/11/10 03:53:49;;;;;;;4.78;2.75;;;;;;;5.34;73.31;97190.59;5046560;28;20048;-79
2021/11/10 03:56:14;;;;;;;4.90;3.10;;;;;;;5.32;72.68;97190.66;5045146;28;20044;-80
2021/11/10 03:58:40;;;;;;;4.47;2.88;;;;;;;5.39;72.48;97193.78;5037255;28;20470;-80
2021/11/10 04:01:05;;;;;;;4.78;3.28;;;;;;;5.35;72.70;97194.94;5025834;28;20025;-82
2021/11/10 04:03:32;;;;;;;6.80;3.42;;;;;;;5.34;73.35;97188.75;5028335;28;20026;-80
2021/11/10 04:05:57;;;;;;;7.28;3.50;;;;;;;5.35;71.78;97192.28;5030039;28;20029;-80
2021/11/10 04:08:23;;;;;;;5.07;3.58;;;;;;;5.34;71.87;97186.09;5029517;28;20021;-80
2021/11/10 04:10:48;;;;;;;12.18;4.18;;;;;;;5.32;70.74;97190.66;5038898;28;20083;-80
2021/11/10 04:13:14;;;;;;;6.03;3.50;;;;;;;5.25;71.36;97184.06;5047984;28;20491;-81
2021/11/10 04:15:39;;;;;;;7.25;3.80;;;;;;;5.16;71.70;97189.00;5049434;28;20041;-81
2021/11/10 04:18:05;;;;;;;6.65;3.95;;;;;;;5.14;71.66;97192.75;5049278;28;20039;-80
2021/11/10 04:20:31;;;;;;;7.55;3.88;;;;;;;5.17;71.69;97198.72;5049828;28;20029;-80
2021/11/10 04:22:56;;;;;;;7.63;4.22;;;;;;;5.16;70.63;97197.00;5033854;28;20580;-79
2021/11/10 04:25:21;;;;;;;7.63;4.13;;;;;;;5.17;70.64;97203.19;5028065;28;20506;-79
2021/11/10 04:27:47;;;;;;;6.68;3.92;;;;;;;5.21;70.17;97196.69;5029543;28;20025;-82
2021/11/10 04:30:13;;;;;;;7.85;4.95;;;;;;;5.21;70.02;97199.34;5027362;28;20105;-79
2021/11/10 04:32:39;;;;;;;8.80;4.35;;;;;;;5.21;70.46;97194.03;5029993;28;20972;-80
2021/11/10 04:35:06;;;;;;;7.43;5.15;;;;;;;5.16;69.70;97199.66;5030541;28;20024;-78
2021/11/10 04:37:32;;;;;;;7.38;4.78;;;;;;;5.25;68.94;97198.22;5027791;28;20063;-80
2021/11/10 04:39:57;;;;;;;10.48;5.07;;;;;;;5.22;69.50;97193.09;5032079;28;20436;-80
2021/11/10 04:42:23;;;;;;;9.38;4.88;;;;;;;5.24;69.90;97190.34;5048858;28;20060;-81
2021/11/10 04:44:52;;;;;;;9.85;5.50;;;;;;;5.23;69.62;97193.94;5041579;28;20030;-81
2021/11/10 04:47:18;;;;;;;7.85;4.78;;;;;;;5.28;69.10;97192.69;5028119;28;20049;-79
2021/11/10 04:49:44;;;;;;;7.88;4.97;;;;;;;5.23;69.57;97191.28;5029227;28;20021;-79
2021/11/10 04:52:10;;;;;;;8.38;4.95;;;;;;;5.27;69.48;97187.47;5028321;28;20018;-80
2021/11/10 04:54:35;;;;;;;8.30;4.72;;;;;;;5.24;68.59;97191.16;5031037;28;20034;-80
2021/11/10 04:57:01;;;;;;;9.32;4.93;;;;;;;5.24;69.13;97193.81;5044806;28;20040;-79
2021/11/10 04:59:26;;;;;;;8.55;5.18;;;;;;;5.23;68.92;97197.44;5045066;28;20040;-80
2021/11/10 05:04:33;;;;;;;8.75;5.53;;;;;;;5.21;69.05;97206.50;5047299;28;20043;-84
2021/11/10 05:06:59;;;;;;;7.53;5.70;;;;;;;5.13;68.50;97205.16;5047045;28;20021;-83
2021/11/10 05:09:24;;;;;;;9.52;5.82;;;;;;;5.15;68.06;97207.72;5044628;28;20036;-81
2021/11/10 05:11:49;;;;;;;8.63;5.38;;;;;;;5.19;67.49;97201.28;5033518;28;20040;-78
2021/11/10 05:14:15;;;;;;;7.38;5.07;;;;;;;5.18;68.03;97212.84;5011731;28;20028;-80
2021/11/10 05:16:40;;;;;;;8.90;5.57;;;;;;;5.09;68.07;97205.47;5026647;28;20091;-79
2021/11/10 05:19:06;;;;;;;9.32;5.20;;;;;;;5.13;67.66;97204.31;5027887;28;20056;-78
2021/11/10 05:21:31;;;;;;;11.05;5.78;;;;;;;5.04;67.96;97208.44;5026722;28;20025;-79
2021/11/10 05:23:57;;;;;;;10.30;5.78;;;;;;;5.09;67.93;97203.69;5040086;28;20028;-79
2021/11/10 05:26:22;;;;;;;10.07;6.13;;;;;;;5.09;68.70;97210.78;5047442;28;20412;-77
2021/11/10 05:28:47;;;;;;;11.15;6.20;;;;;;;5.13;67.94;97212.28;5046693;28;20576;-77
2021/11/10 05:31:13;;;;;;;9.85;5.72;;;;;;;5.22;68.06;97206.41;5047963;28;20399;-79
2021/11/10 05:33:39;;;;;;;9.73;5.82;;;;;;;5.22;67.43;97211.72;5036064;28;20049;-80
2021/11/10 05:36:04;;;;;;;9.40;5.97;;;;;;;5.21;67.43;97223.28;5029219;28;20079;-79
2021/11/10 05:38:30;;;;;;;7.50;5.15;;;;;;;5.35;66.51;97210.91;5028374;28;20034;-79
2021/11/10 05:40:55;;;;;;;10.95;6.63;;;;;;;5.31;66.93;97219.09;5029481;28;20049;-79
2021/11/10 05:43:21;;;;;;;9.98;6.00;;;;;;;5.24;67.80;97225.75;5026982;28;20037;-78
2021/11/10 05:45:46;;;;;;;10.35;6.43;;;;;;;5.27;67.00;97233.53;5029113;28;20045;-80
2021/11/10 05:48:11;;;;;;;10.45;6.18;;;;;;;5.39;66.91;97228.38;5026841;28;20033;-79
2021/11/10 05:50:37;;;;;;;9.70;6.32;;;;;;;5.55;66.61;97228.22;5027778;28;20021;-82
2021/11/10 05:53:02;;;;;;;10.05;6.25;;;;;;;5.69;65.98;97233.50;5026758;28;20637;-78
2021/11/10 05:55:29;;;;;;;9.00;5.88;;;;;;;5.80;66.14;97232.78;5027713;28;20036;-79
2021/11/10 05:57:55;;;;;;;9.65;5.95;;;;;;;5.90;65.62;97232.19;5042938;28;20029;-80
2021/11/10 06:00:22;;;;;;;10.68;6.32;;;;;;;5.87;66.05;97243.03;5042108;28;20323;-80
2021/11/10 06:02:48;;;;;;;13.02;6.25;;;;;;;5.92;65.05;97240.91;5033563;28;20043;-79
2021/11/10 06:05:14;;;;;;;8.70;5.88;;;;;;;6.05;65.08;97241.81;5013886;28;20403;-78
2021/11/10 06:07:39;;;;;;;13.25;7.03;;;;;;;6.20;65.04;97246.19;5020491;28;20038;-79
2021/11/10 06:10:05;;;;;;;10.25;5.85;;;;;;;6.41;64.18;97257.22;5034815;28;20052;-81
2021/11/10 06:12:31;;;;;;;10.38;6.43;;;;;;;6.61;63.75;97260.31;5030509;28;20033;-81
2021/11/10 06:14:56;;;;;;;15.02;6.90;;;;;;;6.66;62.84;97256.34;5037705;28;20033;-80
2021/11/10 06:17:22;;;;;;;9.43;6.10;;;;;;;6.85;62.46;97256.88;5014219;28;20040;-79
2021/11/10 06:19:47;;;;;;;9.18;5.85;;;;;;;6.89;62.48;97261.88;5036343;28;20488;-78
2021/11/10 06:22:12;;;;;;;10.93;6.35;;;;;;;6.98;62.48;97260.38;5038357;28;20026;-78
2021/11/10 06:24:38;;;;;;;7.65;5.82;;;;;;;7.11;62.00;97257.69;5032678;28;20037;-80
2021/11/10 06:27:03;;;;;;;13.45;5.93;;;;;;;7.10;61.96;97260.44;5032013;28;20029;-81
2021/11/10 06:29:29;;;;;;;9.80;5.38;;;;;;;7.28;60.88;97258.28;5043457;28;20032;-79
2021/11/10 06:31:54;;;;;;;11.27;5.93;;;;;;;7.32;61.01;97259.75;5024940;28;20036;-79
2021/11/10 06:34:20;;;;;;;7.75;5.03;;;;;;;7.42;60.51;97262.59;5032142;28;20071;-80
2021/11/10 06:36:45;;;;;;;10.48;5.75;;;;;;;7.53;61.04;97254.66;5026360;28;20083;-81
2021/11/10 06:39:11;;;;;;;11.70;5.82;;;;;;;7.67;60.23;97256.31;5026345;28;20079;-82
2021/11/10 06:41:36;;;;;;;8.65;5.43;;;;;;;7.72;59.85;97255.97;5045009;28;20197;-82
2021/11/10 06:44:01;;;;;;;11.25;5.78;;;;;;;7.74;59.95;97255.84;5034016;28;20079;-80
2021/11/10 06:46:27;;;;;;;11.85;5.53;;;;;;;7.79;59.57;97254.56;5020477;28;20041;-82
2021/11/10 06:48:52;;;;;;;7.25;4.95;;;;;;;7.85;59.11;97250.56;5046587;28;20021;-80
2021/11/10 06:51:18;;;;;;;7.47;5.18;;;;;;;7.96;59.50;97257.81;5036497;28;20084;-80
2021/11/10 06:53:44;;;;;;;8.45;4.78;;;;;;;7.96;59.28;97259.59;5035671;28;20037;-79
2021/11/10 06:56:09;;;;;;;11.43;5.72;;;;;;;8.04;59.02;97254.53;5027424;28;20470;-80
2021/11/10 06:58:35;;;;;;;9.68;5.72;;;;;;;8.07;58.95;97259.66;5028962;28;20037;-81
2021/11/10 07:01:00;;;;;;;8.88;5.60;;;;;;;7.97;58.60;97256.81;5034901;28;20048;-82
2021/11/10 07:03:26;;;;;;;7.20;4.78;;;;;;;8.05;58.46;97253.56;5033595;28;20026;-82
2021/11/10 07:05:51;;;;;;;10.82;5.20;;;;;;;8.19;58.76;97249.84;5043114;28;20127;-81
2021/11/10 07:08:17;;;;;;;9.15;5.07;;;;;;;8.23;58.30;97250.47;5046599;28;20032;-78
2021/11/10 07:10:42;;;;;;;7.50;4.82;;;;;;;8.33;57.84;97247.94;5036143;28;20021;-78
2021/11/10 07:13:08;;;;;;;9.85;5.80;;;;;;;8.33;57.86;97261.31;5036458;28;20033;-80
2021/11/10 07:15:33;;;;;;;7.25;4.32;;;;;;;8.46;57.39;97262.06;5044525;28;20569;-79
2021/11/10 07:17:59;;;;;;;7.95;4.53;;;;;;;8.56;56.33;97258.72;5043980;28;20043;-79
2021/11/10 07:20:24;;;;;;;6.50;4.20;;;;;;;8.60;56.71;97260.16;5036463;28;20083;-78
2021/11/10 07:22:50;;;;;;;8.88;4.80;;;;;;;8.80;56.17;97263.13;5034214;28;20030;-78
2021/11/10 07:25:15;;;;;;;5.65;3.80;;;;;;;8.75;54.48;97255.47;5033990;28;20025;-79
2021/11/10 07:27:41;;;;;;;6.55;4.50;;;;;;;8.71;54.98;97264.69;5043324;28;20029;-79
2021/11/10 07:30:10;;;;;;;8.10;4.03;;;;;;;8.63;55.40;97257.25;5037567;28;20025;-78
2021/11/10 07:32:35;;;;;;;8.13;4.10;;;;;;;8.73;55.65;97247.56;5041153;28;20569;-78
2021/11/10 07:35:05;;;;;;;6.88;4.38;;;;;;;8.82;54.55;97251.31;5038648;28;20474;-78
2021/11/10 07:37:31;;;;;;;5.93;4.03;;;;;;;8.91;54.03;97247.06;5020642;28;20052;-79
2021/11/10 07:39:56;;;;;;;6.68;4.30;;;;;;;8.92;54.52;97253.25;5025374;28;20025;-81
2021/11/10 07:42:22;;;;;;;6.85;3.92;;;;;;;9.00;54.26;97246.34;5027783;28;20025;-78
2021/11/10 07:44:51;;;;;;;6.10;3.88;;;;;;;8.87;53.73;97245.59;5039928;28;20484;-79
2021/11/10 07:47:18;;;;;;;6.15;4.32;;;;;;;8.95;54.85;97243.16;5048597;28;20083;-79
2021/11/10 07:49:44;;;;;;;8.07;4.47;;;;;;;8.98;54.53;97248.28;5042361;28;20036;-78
2021/11/10 07:52:10;;;;;;;6.95;4.63;;;;;;;9.23;53.39;97243.66;5043685;28;20025;-77
2021/11/10 07:54:36;;;;;;;6.22;3.47;;;;;;;9.25;52.72;97249.69;5048091;28;20029;-80
2021/11/10 07:57:02;;;;;;;9.00;4.05;;;;;;;9.06;53.08;97246.81;5048263;28;20094;-80
2021/11/10 07:59:27;;;;;;;4.85;3.15;;;;;;;8.86;53.04;97241.22;5045059;28;20109;-78
2021/11/10 08:01:53;;;;;;;5.63;3.25;;;;;;;8.97;52.33;97241.22;5046904;28;20025;-78
2021/11/10 08:04:18;;;;;;;5.75;3.00;;;;;;;8.80;52.31;97236.38;5037087;28;20496;-80
2021/11/10 08:06:44;;;;;;;5.38;3.45;;;;;;;8.83;52.93;97233.44;5040968;28;20025;-79
2021/11/10 08:09:09;;;;;;;5.25;3.20;;;;;;;8.85;53.28;97250.25;5042431;28;20021;-78
2021/11/10 08:11:34;;;;;;;5.88;3.35;;;;;;;8.66;53.22;97230.25;5041272;28;20083;-78
2021/11/10 08:14:00;;;;;;;7.45;3.67;;;;;;;8.89;53.08;97235.63;5048250;28;20025;-81
2021/11/10 08:16:25;;;;;;;5.03;3.40;;;;;;;9.03;53.46;97243.41;5040742;28;20033;-81
2021/11/10 08:18:51;;;;;;;5.35;3.42;;;;;;;9.01;53.19;97225.78;5041649;28;20052;-81
2021/11/10 08:21:18;;;;;;;5.82;3.65;;;;;;;8.90;53.70;97226.63;5043008;28;20032;-80
2021/11/10 08:23:43;;;;;;;6.97;3.80;;;;;;;8.87;53.34;97230.41;5039781;28;20121;-80
2021/11/10 08:26:09;;;;;;;4.35;2.90;;;;;;;8.94;52.77;97225.41;5041169;28;20525;-82
2021/11/10 08:28:34;;;;;;;7.20;3.70;;;;;;;9.00;53.31;97227.59;5040249;28;20056;-78
2021/11/10 08:31:00;;;;;;;6.40;3.40;;;;;;;9.02;53.02;97222.13;5040844;28;20026;-78
2021/11/10 08:33:27;;;;;;;4.85;3.28;;;;;;;9.10;53.15;97217.00;5041668;28;20041;-78
2021/11/10 08:35:52;;;;;;;6.32;3.25;;;;;;;9.16;52.76;97218.31;5038043;28;20025;-79
2021/11/10 08:38:18;;;;;;;4.90;3.20;;;;;;;9.06;52.34;97220.06;5041271;28;20040;-81
2021/11/10 08:40:43;;;;;;;5.43;3.33;;;;;;;9.06;52.06;97214.72;5041988;28;20029;-81
2021/11/10 08:43:11;;;;;;;4.30;2.83;;;;;;;9.10;52.18;97216.16;5041251;28;20028;-80
2021/11/10 08:45:38;;;;;;;4.13;2.80;;;;;;;9.23;52.26;97216.00;5036175;28;20796;-79
2021/11/10 08:48:05;;;;;;;7.43;3.33;;;;;;;9.32;52.26;97220.63;5040389;28;20025;-79
2021/11/10 08:50:30;;;;;;;5.45;3.38;;;;;;;9.43;51.99;97208.19;5034918;28;20463;-78
2021/11/10 08:52:57;;;;;;;4.82;3.05;;;;;;;9.44;51.87;97212.56;5037662;28;20082;-78
2021/11/10 08:55:23;;;;;;;5.57;3.58;;;;;;;9.58;51.97;97208.72;5032730;28;20036;-79
2021/11/10 08:57:49;;;;;;;5.97;3.30;;;;;;;9.65;52.09;97201.91;5018210;28;20041;-79
2021/11/10 09:00:22;;;;;;;6.15;2.95;;;;;;;9.64;52.12;97203.72;5043470;28;20020;-78
2021/11/10 09:02:48;;;;;;;4.80;3.05;;;;;;;9.85;52.53;97204.75;5046239;28;20043;-77
2021/11/10 09:05:13;;;;;;;6.38;3.50;;;;;;;10.02;51.41;97197.97;5028346;28;20029;-79
2021/11/10 09:07:39;;;;;;;6.03;3.67;;;;;;;10.01;51.75;97204.31;5025083;28;20021;-81
2021/11/10 09:10:05;;;;;;;7.60;3.88;;;;;;;10.03;51.71;97196.97;5045357;28;20067;-79
2021/11/10 09:12:31;;;;;;;5.03;3.22;;;;;;;9.93;50.86;97204.09;5031115;28;20024;-79
2021/11/10 09:14:57;;;;;;;4.00;2.70;;;;;;;9.95;50.38;97188.72;5039637;28;20025;-78
2021/11/10 09:17:22;;;;;;;8.15;3.22;;;;;;;9.83;49.89;97185.25;5044531;28;20547;-78
2021/11/10 09:19:48;;;;;;;4.75;3.10;;;;;;;9.83;49.90;97193.31;5043846;28;20021;-82
2021/11/10 09:22:14;;;;;;;4.80;2.50;;;;;;;9.63;50.21;97199.34;5035111;28;20033;-81
2021/11/10 09:24:39;;;;;;;4.10;2.97;;;;;;;9.67;49.69;97191.91;5042643;28;20522;-81
2021/11/10 09:27:05;;;;;;;5.13;3.30;;;;;;;9.45;50.50;97191.00;5043935;28;20408;-81
2021/11/10 09:29:30;;;;;;;4.32;2.78;;;;;;;9.41;50.35;97186.88;5045673;28;20772;-80
2021/11/10 09:31:56;;;;;;;4.32;2.88;;;;;;;9.55;50.51;97177.69;5047203;28;20454;-80
2021/11/10 09:34:21;;;;;;;5.03;3.17;;;;;;;9.58;50.30;97179.25;5045888;28;20072;-79
2021/11/10 09:36:47;;;;;;;6.20;3.20;;;;;;;9.64;50.32;97170.75;5041549;28;20541;-78
2021/11/10 09:39:21;;;;;;;3.97;2.90;;;;;;;9.67;49.21;97165.13;5036578;28;20018;-79
2021/11/10 09:41:51;;;;;;;4.63;3.15;;;;;;;9.64;49.35;97184.97;5034707;28;20040;-81
2021/11/10 09:44:16;;;;;;;4.65;2.92;;;;;;;9.73;49.51;97188.72;5033186;28;20028;-79
2021/11/10 09:46:42;;;;;;;5.38;3.10;;;;;;;9.67;49.78;97172.31;5037034;28;20380;-79
2021/11/10 09:49:09;;;;;;;3.58;2.70;;;;;;;9.53;49.50;97174.28;5043711;28;20041;-80
2021/11/10 09:51:35;;;;;;;4.63;2.88;;;;;;;9.38;50.38;97169.22;5040351;28;20407;-80
2021/11/10 09:54:01;;;;;;;4.20;2.90;;;;;;;9.42;50.28;97161.78;5054967;28;20218;-79
2021/11/10 09:56:27;;;;;;;5.65;2.72;;;;;;;9.50;49.69;97159.34;5054557;28;20017;-79
2021/11/10 09:58:52;;;;;;;4.38;2.90;;;;;;;9.58;50.70;97161.38;5051782;28;20060;-77
2021/11/10 10:01:17;;;;;;;4.55;2.78;;;;;;;9.57;50.13;97142.75;5052317;28;20040;-77
2021/11/10 10:03:45;;;;;;;3.97;2.60;;;;;;;9.60;50.47;97154.06;5055996;28;20021;-78
2021/11/10 10:06:11;;;;;;;3.97;2.78;;;;;;;9.72;50.28;97146.81;5048724;28;20064;-79
2021/11/10 10:08:36;;;;;;;5.43;2.90;;;;;;;9.77;49.70;97141.06;5027344;28;20088;-78
2021/11/10 10:11:02;;;;;;;5.15;3.20;;;;;;;9.70;49.91;97137.22;5045951;28;20041;-78
2021/11/10 10:13:27;;;;;;;4.22;2.88;;;;;;;9.71;49.68;97139.75;5044215;28;20036;-77
2021/11/10 10:15:53;;;;;;;4.80;2.60;;;;;;;9.56;49.91;97123.13;5042924;28;20027;-77
2021/11/10 10:18:24;;;;;;;4.13;2.75;;;;;;;9.63;49.83;97136.88;5042589;28;20024;-78
2021/11/10 10:20:57;;;;;;;5.65;3.22;;;;;;;9.68;50.42;97123.94;5043110;28;20368;-77
2021/11/10 10:23:26;;;;;;;5.68;3.33;;;;;;;9.84;49.86;97128.00;5043584;28;20107;-77
2021/11/10 10:25:54;;;;;;;6.45;3.35;;;;;;;9.84;49.79;97128.84;5043471;28;20381;-78
2021/11/10 10:28:31;;;;;;;5.35;3.47;;;;;;;9.93;50.01;97126.38;5043687;28;20021;-76
2021/11/10 10:31:01;;;;;;;4.90;2.97;;;;;;;9.90;49.44;97119.44;5028416;28;20025;-77
2021/11/10 10:33:29;;;;;;;5.55;3.30;;;;;;;9.99;49.61;97116.00;5044880;28;20045;-77
2021/11/10 10:36:03;;;;;;;4.28;2.90;;;;;;;9.94;49.92;97109.31;5028091;28;20032;-77
2021/11/10 10:38:38;;;;;;;8.65;3.55;;;;;;;9.99;49.66;97118.66;5043416;28;20037;-78
2021/11/10 10:41:05;;;;;;;5.07;3.00;;;;;;;9.88;49.13;97110.69;5044388;28;20087;-77
2021/11/10 10:43:31;;;;;;;5.30;3.20;;;;;;;9.94;49.41;97112.84;5043407;28;20028;-76
2021/11/10 10:45:57;;;;;;;3.92;2.40;;;;;;;10.06;49.27;97110.09;5027455;28;20025;-77
2021/11/10 10:48:32;;;;;;;5.93;3.25;;;;;;;9.97;49.33;97095.63;5042747;28;20025;-77
2021/11/10 10:51:03;;;;;;;4.65;2.83;;;;;;;9.93;49.36;97086.19;5045238;28;20033;-80
2021/11/10 10:53:34;;;;;;;4.80;2.80;;;;;;;10.03;49.22;97084.38;5045358;28;20101;-78
2021/11/10 10:56:01;;;;;;;4.68;2.67;;;;;;;10.10;48.97;97080.22;5045448;28;20031;-77
2021/11/10 10:58:37;;;;;;;4.97;2.90;;;;;;;10.10;48.07;97082.88;5026059;28;20108;-78
2021/11/10 11:01:19;;;;;;;4.18;2.95;;;;;;;10.17;47.93;97093.94;5044928;28;20029;-77
2021/11/10 11:03:55;;;;;;;6.95;3.05;;;;;;;10.11;48.99;97075.66;5045335;28;20499;-76
2021/11/10 11:06:29;;;;;;;4.97;2.55;;;;;;;10.29;48.22;97085.78;5045495;28;20017;-78
2021/11/10 11:08:58;;;;;;;4.10;2.90;;;;;;;10.38;48.36;97071.56;5043989;28;20037;-79
2021/11/10 11:11:53;;;;;;;4.18;2.90;;;;;;;10.41;47.69;97082.03;5044416;28;20048;-79
2021/11/10 11:17:05;;;;;;;3.60;2.28;;;;;;;10.17;48.52;97076.97;5048052;28;20010;-77
2021/11/10 11:19:37;;;;;;;4.55;2.65;;;;;;;10.19;47.79;97069.66;5048298;28;20104;-77
2021/11/10 11:22:03;;;;;;;4.15;2.72;;;;;;;10.23;48.43;97068.41;5047779;28;20027;-79
2021/11/10 11:24:36;;;;;;;4.90;2.92;;;;;;;10.35;47.84;97064.63;5047961;28;21032;-77
2021/11/10 11:27:18;;;;;;;5.00;3.35;;;;;;;10.43;47.01;97058.59;5047524;28;20029;-78
2021/11/10 11:29:45;;;;;;;5.80;3.08;;;;;;;10.43;46.96;97055.91;5040497;28;20132;-78
2021/11/10 11:32:38;;;;;;;5.07;3.00;;;;;;;10.48;47.28;97040.28;5038614;28;20048;-79
2021/11/10 11:35:13;;;;;;;5.80;2.90;;;;;;;10.67;47.06;97043.16;5018928;28;20040;-77
2021/11/10 11:37:39;;;;;;;5.68;3.10;;;;;;;10.79;46.66;97039.38;5037924;28;20041;-79
2021/11/10 11:40:07;;;;;;;5.65;3.08;;;;;;;10.94;45.99;97042.50;5041825;28;20067;-78
2021/11/10 11:42:33;;;;;;;3.83;2.60;;;;;;;11.00;45.12;97046.47;5026765;28;20028;-78